ANZ659 NZQN-NZWN
Flight info
| Callsign | ANZ659 |
|---|---|
| Flight time | 1h 8m |
| Altitude | 35000 |
| Route | BRG1 QN Q787 TIMJO Y153 DOPKI Y533 GRETA Y393 WARDS WARDS4C |
| Aircraft | A320/M-SDE3FGHIRWY/LB1 |
Departure
| Time | 2026-05-07 01:39 |
|---|---|
| Airport | Queenstown Airport (NZQN) |
Arrival
| Time | 2026-05-07 02:47 |
|---|---|
| Airport | Wellington International Airport (NZWN) |
| Time | Latitude | Longitude | Altitude | Speed | Heading |
|---|---|---|---|---|---|
| 2026-05-07 01:12 | -45.02197 | 168.74113 | 1201 ft | 0 kts | 252° |
| 2026-05-07 01:29 | -45.02192 | 168.74143 | 1171 ft | 4 kts | 270° |
| 2026-05-07 01:29 | -45.02195 | 168.74180 | 1171 ft | 3 kts | 283° |
| 2026-05-07 01:30 | -45.02197 | 168.74191 | 1172 ft | 0 kts | 283° |
| 2026-05-07 01:33 | -45.02190 | 168.74184 | 1170 ft | 3 kts | 326° |
| 2026-05-07 01:34 | -45.02158 | 168.74172 | 1172 ft | 6 kts | 346° |
| 2026-05-07 01:34 | -45.02116 | 168.74146 | 1169 ft | 7 kts | 312° |
| 2026-05-07 01:34 | -45.02090 | 168.74075 | 1171 ft | 9 kts | 304° |
| 2026-05-07 01:34 | -45.02030 | 168.74065 | 1172 ft | 10 kts | 22° |
| 2026-05-07 01:35 | -45.01940 | 168.74119 | 1175 ft | 19 kts | 25° |
| 2026-05-07 01:35 | -45.01890 | 168.74281 | 1179 ft | 19 kts | 80° |
| 2026-05-07 01:35 | -45.01860 | 168.74479 | 1175 ft | 23 kts | 77° |
| 2026-05-07 01:35 | -45.01822 | 168.74708 | 1170 ft | 24 kts | 77° |
| 2026-05-07 01:36 | -45.01880 | 168.74774 | 1170 ft | 11 kts | 191° |
| 2026-05-07 01:36 | -45.01889 | 168.74831 | 1171 ft | 9 kts | 77° |
| 2026-05-07 01:36 | -45.01869 | 168.74965 | 1173 ft | 18 kts | 77° |
| 2026-05-07 01:36 | -45.01839 | 168.75147 | 1190 ft | 19 kts | 77° |
| 2026-05-07 01:37 | -45.01809 | 168.75331 | 1195 ft | 19 kts | 76° |
| 2026-05-07 01:37 | -45.01781 | 168.75515 | 1201 ft | 19 kts | 79° |
| 2026-05-07 01:37 | -45.01754 | 168.75678 | 1204 ft | 12 kts | 73° |
| 2026-05-07 01:37 | -45.01686 | 168.75686 | 1204 ft | 12 kts | 318° |
| 2026-05-07 01:38 | -45.01678 | 168.75617 | 1204 ft | 0 kts | 255° |
| 2026-05-07 01:38 | -45.01678 | 168.75616 | 1204 ft | 4 kts | 255° |
| 2026-05-07 01:38 | -45.01744 | 168.75184 | 1194 ft | 85 kts | 258° |
| 2026-05-07 01:38 | -45.01914 | 168.74090 | 1175 ft | 143 kts | 259° |
| 2026-05-07 01:39 | -45.02162 | 168.72598 | 1553 ft | 158 kts | 255° |
| 2026-05-07 01:39 | -45.02481 | 168.71100 | 2250 ft | 159 kts | 250° |
| 2026-05-07 01:39 | -45.02986 | 168.69699 | 2871 ft | 162 kts | 235° |
| 2026-05-07 01:39 | -45.03794 | 168.68526 | 3290 ft | 169 kts | 216° |
| 2026-05-07 01:40 | -45.04860 | 168.67782 | 3765 ft | 177 kts | 196° |
| 2026-05-07 01:40 | -45.06085 | 168.67599 | 4302 ft | 178 kts | 179° |
| 2026-05-07 01:40 | -45.07298 | 168.67978 | 4802 ft | 181 kts | 158° |
| 2026-05-07 01:40 | -45.08377 | 168.68919 | 5292 ft | 184 kts | 137° |
| 2026-05-07 01:41 | -45.09191 | 168.70324 | 5763 ft | 187 kts | 122° |
| 2026-05-07 01:41 | -45.09996 | 168.71771 | 6210 ft | 191 kts | 135° |
| 2026-05-07 01:41 | -45.10607 | 168.72556 | 6478 ft | 193 kts | 142° |
| 2026-05-07 01:42 | -45.11706 | 168.73562 | 6904 ft | 196 kts | 155° |
| 2026-05-07 01:42 | -45.12983 | 168.74259 | 7335 ft | 198 kts | 168° |
| 2026-05-07 01:42 | -45.14396 | 168.74576 | 7536 ft | 215 kts | 182° |
| 2026-05-07 01:42 | -45.15963 | 168.74474 | 7692 ft | 237 kts | 188° |
| 2026-05-07 01:43 | -45.17680 | 168.74294 | 7934 ft | 258 kts | 188° |
| 2026-05-07 01:43 | -45.19555 | 168.74106 | 8209 ft | 282 kts | 188° |
| 2026-05-07 01:43 | -45.21570 | 168.73812 | 8700 ft | 296 kts | 197° |
| 2026-05-07 01:43 | -45.23523 | 168.72880 | 9421 ft | 297 kts | 212° |
| 2026-05-07 01:44 | -45.25210 | 168.71299 | 10110 ft | 294 kts | 227° |
| 2026-05-07 01:44 | -45.26601 | 168.69106 | 10389 ft | 306 kts | 243° |
| 2026-05-07 01:44 | -45.27545 | 168.66333 | 10582 ft | 318 kts | 258° |
| 2026-05-07 01:44 | -45.27914 | 168.63240 | 11160 ft | 318 kts | 273° |
| 2026-05-07 01:45 | -45.27705 | 168.60134 | 11838 ft | 315 kts | 288° |
| 2026-05-07 01:45 | -45.26930 | 168.57255 | 12642 ft | 311 kts | 302° |
| 2026-05-07 01:45 | -45.25650 | 168.54794 | 13452 ft | 311 kts | 316° |
| 2026-05-07 01:45 | -45.23945 | 168.52907 | 14139 ft | 313 kts | 329° |
| 2026-05-07 01:46 | -45.21929 | 168.51697 | 14684 ft | 318 kts | 342° |
| 2026-05-07 01:46 | -45.19717 | 168.51270 | 15144 ft | 325 kts | 356° |
| 2026-05-07 01:46 | -45.17445 | 168.51690 | 15623 ft | 336 kts | 10° |
| 2026-05-07 01:46 | -45.15259 | 168.53026 | 16141 ft | 350 kts | 26° |
| 2026-05-07 01:47 | -45.13359 | 168.55217 | 16670 ft | 362 kts | 38° |
| 2026-05-07 01:47 | -45.11556 | 168.57725 | 17214 ft | 365 kts | 38° |
| 2026-05-07 01:47 | -45.09736 | 168.60252 | 17830 ft | 368 kts | 38° |
| 2026-05-07 01:47 | -45.07893 | 168.62799 | 18406 ft | 372 kts | 38° |
| 2026-05-07 01:48 | -45.06033 | 168.65366 | 18978 ft | 374 kts | 38° |
| 2026-05-07 01:48 | -45.04116 | 168.67846 | 19529 ft | 373 kts | 32° |
| 2026-05-07 01:48 | -45.02052 | 168.70089 | 20099 ft | 374 kts | 31° |
| 2026-05-07 01:48 | -44.99972 | 168.72342 | 20648 ft | 377 kts | 31° |
| 2026-05-07 01:49 | -44.97889 | 168.74598 | 21231 ft | 378 kts | 31° |
| 2026-05-07 01:49 | -44.95790 | 168.76867 | 21761 ft | 381 kts | 31° |
| 2026-05-07 01:49 | -44.93677 | 168.79147 | 22276 ft | 384 kts | 31° |
| 2026-05-07 01:49 | -44.91577 | 168.81417 | 22798 ft | 386 kts | 30° |
| 2026-05-07 01:50 | -44.89441 | 168.83731 | 23299 ft | 388 kts | 31° |
| 2026-05-07 01:50 | -44.87289 | 168.86059 | 23702 ft | 391 kts | 31° |
| 2026-05-07 01:50 | -44.85109 | 168.88371 | 24106 ft | 391 kts | 27° |
| 2026-05-07 01:50 | -44.82769 | 168.90280 | 24497 ft | 387 kts | 19° |
| 2026-05-07 01:51 | -44.80311 | 168.91835 | 24864 ft | 389 kts | 18° |
| 2026-05-07 01:51 | -44.77833 | 168.93389 | 25242 ft | 391 kts | 18° |
| 2026-05-07 01:51 | -44.75343 | 168.94955 | 25645 ft | 393 kts | 18° |
| 2026-05-07 01:51 | -44.72888 | 168.96742 | 26034 ft | 402 kts | 26° |
| 2026-05-07 01:52 | -44.70637 | 168.99160 | 26412 ft | 413 kts | 36° |
| 2026-05-07 01:52 | -44.68692 | 169.02210 | 26794 ft | 425 kts | 47° |
| 2026-05-07 01:52 | -44.67146 | 169.05816 | 27153 ft | 438 kts | 58° |
| 2026-05-07 01:52 | -44.65906 | 169.09750 | 27478 ft | 442 kts | 59° |
| 2026-05-07 01:53 | -44.64662 | 169.13708 | 27839 ft | 444 kts | 59° |
| 2026-05-07 01:53 | -44.63416 | 169.17629 | 28161 ft | 447 kts | 59° |
| 2026-05-07 01:53 | -44.62139 | 169.21622 | 28508 ft | 449 kts | 59° |
| 2026-05-07 01:53 | -44.60852 | 169.25630 | 28787 ft | 452 kts | 59° |
| 2026-05-07 01:54 | -44.59555 | 169.29668 | 29117 ft | 454 kts | 59° |
| 2026-05-07 01:54 | -44.58254 | 169.33727 | 29465 ft | 456 kts | 59° |
| 2026-05-07 01:54 | -44.56947 | 169.37809 | 29803 ft | 459 kts | 59° |
| 2026-05-07 01:54 | -44.55636 | 169.41902 | 30012 ft | 461 kts | 59° |
| 2026-05-07 01:55 | -44.54332 | 169.45973 | 30509 ft | 457 kts | 59° |
| 2026-05-07 01:55 | -44.53031 | 169.50035 | 30994 ft | 455 kts | 59° |
| 2026-05-07 01:55 | -44.51732 | 169.54074 | 31353 ft | 454 kts | 58° |
| 2026-05-07 01:55 | -44.50428 | 169.58111 | 31599 ft | 456 kts | 58° |
| 2026-05-07 01:56 | -44.49114 | 169.62160 | 31887 ft | 457 kts | 58° |
| 2026-05-07 01:56 | -44.47813 | 169.66169 | 32270 ft | 457 kts | 58° |
| 2026-05-07 01:56 | -44.46499 | 169.70227 | 32571 ft | 458 kts | 58° |
| 2026-05-07 01:56 | -44.45135 | 169.74244 | 32980 ft | 455 kts | 56° |
| 2026-05-07 01:57 | -44.43686 | 169.78183 | 33416 ft | 453 kts | 54° |
| 2026-05-07 01:57 | -44.42180 | 169.82047 | 33794 ft | 450 kts | 53° |
| 2026-05-07 01:57 | -44.40652 | 169.85860 | 34157 ft | 448 kts | 53° |
| 2026-05-07 01:57 | -44.39120 | 169.89665 | 34492 ft | 448 kts | 53° |
| 2026-05-07 01:58 | -44.37601 | 169.93470 | 34712 ft | 449 kts | 54° |
| 2026-05-07 01:58 | -44.34598 | 170.01117 | 34769 ft | 453 kts | 54° |
| 2026-05-07 01:59 | -44.31599 | 170.08864 | 34769 ft | 454 kts | 54° |
| 2026-05-07 01:59 | -44.28585 | 170.16609 | 34762 ft | 453 kts | 54° |
| 2026-05-07 02:00 | -44.25571 | 170.24317 | 34769 ft | 452 kts | 54° |
| 2026-05-07 02:00 | -44.22551 | 170.32007 | 34770 ft | 452 kts | 54° |
| 2026-05-07 02:01 | -44.19529 | 170.39710 | 34764 ft | 453 kts | 54° |
| 2026-05-07 02:01 | -44.16506 | 170.47350 | 34747 ft | 454 kts | 53° |
| 2026-05-07 02:02 | -44.13439 | 170.55050 | 34716 ft | 454 kts | 54° |
| 2026-05-07 02:02 | -44.10377 | 170.62754 | 34744 ft | 454 kts | 54° |
| 2026-05-07 02:03 | -44.07325 | 170.70439 | 34754 ft | 454 kts | 54° |
| 2026-05-07 02:03 | -44.04283 | 170.78064 | 34739 ft | 453 kts | 53° |
| 2026-05-07 02:04 | -44.01208 | 170.85752 | 34740 ft | 455 kts | 53° |
| 2026-05-07 02:04 | -43.98125 | 170.93430 | 34720 ft | 455 kts | 54° |
| 2026-05-07 02:05 | -43.95040 | 171.01085 | 34760 ft | 453 kts | 54° |
| 2026-05-07 02:05 | -43.91983 | 171.08663 | 34761 ft | 451 kts | 54° |
| 2026-05-07 02:06 | -43.88907 | 171.16265 | 34759 ft | 450 kts | 54° |
| 2026-05-07 02:06 | -43.85839 | 171.23832 | 34745 ft | 450 kts | 54° |
| 2026-05-07 02:07 | -43.82764 | 171.31384 | 34744 ft | 450 kts | 54° |
| 2026-05-07 02:07 | -43.78160 | 171.42653 | 34750 ft | 451 kts | 54° |
| 2026-05-07 02:08 | -43.75067 | 171.50202 | 34760 ft | 451 kts | 54° |
| 2026-05-07 02:08 | -43.71973 | 171.57748 | 34763 ft | 450 kts | 54° |
| 2026-05-07 02:09 | -43.68829 | 171.65244 | 34740 ft | 449 kts | 51° |
| 2026-05-07 02:09 | -43.65381 | 171.72350 | 34743 ft | 447 kts | 47° |
| 2026-05-07 02:10 | -43.61745 | 171.79326 | 34749 ft | 447 kts | 47° |
| 2026-05-07 02:10 | -43.58139 | 171.86344 | 34772 ft | 449 kts | 48° |
| 2026-05-07 02:11 | -43.55179 | 171.92234 | 34775 ft | 450 kts | 48° |
| 2026-05-07 02:11 | -43.51627 | 171.99335 | 34783 ft | 450 kts | 48° |
| 2026-05-07 02:12 | -43.47487 | 172.07577 | 34768 ft | 451 kts | 48° |
| 2026-05-07 02:12 | -43.44497 | 172.13478 | 34787 ft | 452 kts | 48° |
| 2026-05-07 02:13 | -43.40891 | 172.20583 | 34789 ft | 453 kts | 48° |
| 2026-05-07 02:13 | -43.37277 | 172.27695 | 34813 ft | 453 kts | 48° |
| 2026-05-07 02:14 | -43.33659 | 172.34797 | 34813 ft | 454 kts | 48° |
| 2026-05-07 02:14 | -43.30032 | 172.41888 | 34828 ft | 454 kts | 48° |
| 2026-05-07 02:15 | -43.26398 | 172.48981 | 34829 ft | 454 kts | 48° |
| 2026-05-07 02:15 | -43.22782 | 172.56034 | 34835 ft | 454 kts | 48° |
| 2026-05-07 02:16 | -43.19134 | 172.63124 | 34829 ft | 454 kts | 48° |
| 2026-05-07 02:16 | -43.15478 | 172.70198 | 34844 ft | 454 kts | 48° |
| 2026-05-07 02:17 | -43.11828 | 172.77261 | 34865 ft | 454 kts | 48° |
| 2026-05-07 02:17 | -43.08200 | 172.84274 | 34866 ft | 454 kts | 48° |
| 2026-05-07 02:18 | -43.04541 | 172.91319 | 34874 ft | 454 kts | 48° |
| 2026-05-07 02:18 | -43.00875 | 172.98349 | 34852 ft | 454 kts | 48° |
| 2026-05-07 02:19 | -42.97065 | 173.05163 | 34865 ft | 446 kts | 39° |
| 2026-05-07 02:19 | -42.92374 | 173.10518 | 34875 ft | 437 kts | 29° |
| 2026-05-07 02:20 | -42.87470 | 173.15420 | 34313 ft | 440 kts | 29° |
| 2026-05-07 02:20 | -42.84976 | 173.17906 | 33486 ft | 444 kts | 30° |
| 2026-05-07 02:20 | -42.82541 | 173.20345 | 33077 ft | 437 kts | 30° |
| 2026-05-07 02:21 | -42.80097 | 173.22798 | 32558 ft | 433 kts | 30° |
| 2026-05-07 02:21 | -42.77685 | 173.25221 | 32066 ft | 429 kts | 30° |
| 2026-05-07 02:21 | -42.75292 | 173.27622 | 31562 ft | 426 kts | 30° |
| 2026-05-07 02:21 | -42.72910 | 173.30004 | 31060 ft | 422 kts | 30° |
| 2026-05-07 02:22 | -42.70553 | 173.32355 | 30597 ft | 418 kts | 30° |
| 2026-05-07 02:22 | -42.68241 | 173.34664 | 30424 ft | 407 kts | 30° |
| 2026-05-07 02:22 | -42.65990 | 173.36916 | 30340 ft | 395 kts | 29° |
| 2026-05-07 02:22 | -42.63808 | 173.39092 | 30254 ft | 384 kts | 29° |
| 2026-05-07 02:23 | -42.59561 | 173.43293 | 30090 ft | 377 kts | 28° |
| 2026-05-07 02:23 | -42.55338 | 173.47440 | 29936 ft | 377 kts | 28° |
| 2026-05-07 02:24 | -42.51096 | 173.51623 | 29755 ft | 376 kts | 29° |
| 2026-05-07 02:24 | -42.48982 | 173.53711 | 29653 ft | 376 kts | 28° |
| 2026-05-07 02:24 | -42.46870 | 173.55798 | 29561 ft | 374 kts | 28° |
| 2026-05-07 02:25 | -42.42673 | 173.59940 | 29364 ft | 373 kts | 29° |
| 2026-05-07 02:25 | -42.38484 | 173.64066 | 29182 ft | 372 kts | 29° |
| 2026-05-07 02:26 | -42.34305 | 173.68172 | 29018 ft | 371 kts | 29° |
| 2026-05-07 02:26 | -42.30136 | 173.72264 | 28841 ft | 370 kts | 29° |
| 2026-05-07 02:27 | -42.25973 | 173.76340 | 28675 ft | 370 kts | 29° |
| 2026-05-07 02:27 | -42.23897 | 173.78369 | 28519 ft | 369 kts | 29° |
| 2026-05-07 02:27 | -42.21812 | 173.80407 | 28110 ft | 372 kts | 30° |
| 2026-05-07 02:28 | -42.19741 | 173.82430 | 27730 ft | 371 kts | 30° |
| 2026-05-07 02:28 | -42.17652 | 173.84469 | 27321 ft | 370 kts | 29° |
| 2026-05-07 02:28 | -42.15562 | 173.86501 | 26912 ft | 370 kts | 30° |
| 2026-05-07 02:28 | -42.13482 | 173.88525 | 26521 ft | 368 kts | 30° |
| 2026-05-07 02:29 | -42.11407 | 173.90543 | 26143 ft | 366 kts | 30° |
| 2026-05-07 02:29 | -42.09341 | 173.92548 | 25767 ft | 364 kts | 29° |
| 2026-05-07 02:29 | -42.07281 | 173.94547 | 25376 ft | 362 kts | 29° |
| 2026-05-07 02:29 | -42.05268 | 173.96502 | 25000 ft | 360 kts | 29° |
| 2026-05-07 02:30 | -42.03243 | 173.98466 | 24612 ft | 358 kts | 30° |
| 2026-05-07 02:30 | -42.01229 | 174.00414 | 24261 ft | 355 kts | 30° |
| 2026-05-07 02:30 | -41.99224 | 174.02350 | 23873 ft | 354 kts | 29° |
| 2026-05-07 02:30 | -41.97221 | 174.04285 | 23462 ft | 353 kts | 30° |
| 2026-05-07 02:31 | -41.95233 | 174.06207 | 23041 ft | 351 kts | 29° |
| 2026-05-07 02:31 | -41.93256 | 174.08117 | 22644 ft | 348 kts | 30° |
| 2026-05-07 02:31 | -41.91292 | 174.10014 | 22248 ft | 346 kts | 30° |
| 2026-05-07 02:31 | -41.89342 | 174.11896 | 21837 ft | 344 kts | 30° |
| 2026-05-07 02:32 | -41.87429 | 174.13742 | 21448 ft | 343 kts | 29° |
| 2026-05-07 02:32 | -41.85493 | 174.15615 | 21035 ft | 342 kts | 30° |
| 2026-05-07 02:32 | -41.83566 | 174.17478 | 20617 ft | 341 kts | 30° |
| 2026-05-07 02:32 | -41.81643 | 174.19328 | 20200 ft | 340 kts | 29° |
| 2026-05-07 02:33 | -41.79718 | 174.21177 | 19796 ft | 339 kts | 29° |
| 2026-05-07 02:33 | -41.77799 | 174.23015 | 19388 ft | 339 kts | 29° |
| 2026-05-07 02:33 | -41.75875 | 174.24859 | 18964 ft | 338 kts | 29° |
| 2026-05-07 02:33 | -41.73986 | 174.26665 | 18548 ft | 338 kts | 28° |
| 2026-05-07 02:34 | -41.71970 | 174.28212 | 18100 ft | 332 kts | 20° |
| 2026-05-07 02:34 | -41.69914 | 174.29607 | 17672 ft | 330 kts | 21° |
| 2026-05-07 02:34 | -41.67871 | 174.30994 | 17270 ft | 328 kts | 21° |
| 2026-05-07 02:34 | -41.65834 | 174.32378 | 16858 ft | 327 kts | 21° |
| 2026-05-07 02:35 | -41.63804 | 174.33759 | 16448 ft | 326 kts | 21° |
| 2026-05-07 02:35 | -41.61787 | 174.35130 | 16041 ft | 325 kts | 21° |
| 2026-05-07 02:35 | -41.59800 | 174.36480 | 15641 ft | 324 kts | 21° |
| 2026-05-07 02:35 | -41.57793 | 174.37837 | 15245 ft | 323 kts | 21° |
| 2026-05-07 02:36 | -41.55775 | 174.39199 | 14836 ft | 327 kts | 21° |
| 2026-05-07 02:36 | -41.53801 | 174.40719 | 14434 ft | 332 kts | 32° |
| 2026-05-07 02:36 | -41.52114 | 174.42852 | 14037 ft | 339 kts | 49° |
| 2026-05-07 02:36 | -41.51039 | 174.45684 | 13612 ft | 348 kts | 69° |
| 2026-05-07 02:37 | -41.50545 | 174.48854 | 13175 ft | 348 kts | 75° |
| 2026-05-07 02:37 | -41.50126 | 174.51948 | 12949 ft | 329 kts | 75° |
| 2026-05-07 02:37 | -41.49712 | 174.54906 | 12306 ft | 322 kts | 70° |
| 2026-05-07 02:37 | -41.48760 | 174.57559 | 11388 ft | 313 kts | 43° |
| 2026-05-07 02:38 | -41.47179 | 174.59226 | 11144 ft | 278 kts | 17° |
| 2026-05-07 02:38 | -41.45406 | 174.59819 | 10744 ft | 253 kts | 352° |
| 2026-05-07 02:38 | -41.43779 | 174.59233 | 10246 ft | 238 kts | 325° |
| 2026-05-07 02:38 | -41.42676 | 174.57656 | 9686 ft | 236 kts | 298° |
| 2026-05-07 02:39 | -41.42372 | 174.55504 | 9090 ft | 245 kts | 270° |
| 2026-05-07 02:39 | -41.42978 | 174.53334 | 8509 ft | 261 kts | 242° |
| 2026-05-07 02:39 | -41.44395 | 174.51716 | 7966 ft | 280 kts | 214° |
| 2026-05-07 02:39 | -41.46328 | 174.51056 | 7341 ft | 297 kts | 189° |
| 2026-05-07 02:40 | -41.48407 | 174.51300 | 6756 ft | 306 kts | 168° |
| 2026-05-07 02:40 | -41.50335 | 174.52525 | 6150 ft | 311 kts | 142° |
| 2026-05-07 02:40 | -41.51757 | 174.54656 | 5598 ft | 307 kts | 115° |
| 2026-05-07 02:40 | -41.52441 | 174.57302 | 5195 ft | 297 kts | 89° |
| 2026-05-07 02:41 | -41.52376 | 174.59983 | 4803 ft | 284 kts | 66° |
| 2026-05-07 02:41 | -41.51666 | 174.62311 | 4616 ft | 258 kts | 46° |
| 2026-05-07 02:41 | -41.50612 | 174.64007 | 4485 ft | 224 kts | 29° |
| 2026-05-07 02:41 | -41.49418 | 174.65146 | 4252 ft | 204 kts | 23° |
| 2026-05-07 02:42 | -41.48331 | 174.66415 | 4015 ft | 212 kts | 36° |
| 2026-05-07 02:42 | -41.47471 | 174.68097 | 3564 ft | 230 kts | 51° |
| 2026-05-07 02:42 | -41.46968 | 174.70164 | 3232 ft | 233 kts | 63° |
| 2026-05-07 02:42 | -41.46587 | 174.72206 | 3117 ft | 222 kts | 62° |
| 2026-05-07 02:43 | -41.46237 | 174.74177 | 2981 ft | 213 kts | 61° |
| 2026-05-07 02:43 | -41.45810 | 174.75960 | 2877 ft | 194 kts | 51° |
| 2026-05-07 02:43 | -41.45187 | 174.77446 | 2736 ft | 176 kts | 38° |
| 2026-05-07 02:43 | -41.44393 | 174.78583 | 2326 ft | 160 kts | 25° |
| 2026-05-07 02:44 | -41.43524 | 174.79373 | 1987 ft | 144 kts | 18° |
| 2026-05-07 02:44 | -41.42647 | 174.79854 | 1791 ft | 132 kts | 7° |
| 2026-05-07 02:44 | -41.41778 | 174.80080 | 1658 ft | 124 kts | 0° |
| 2026-05-07 02:44 | -41.40919 | 174.80140 | 1479 ft | 125 kts | 358° |
| 2026-05-07 02:45 | -41.40031 | 174.80198 | 1328 ft | 127 kts | 358° |
| 2026-05-07 02:45 | -41.39148 | 174.80256 | 1152 ft | 130 kts | 359° |
| 2026-05-07 02:45 | -41.38247 | 174.80315 | 984 ft | 131 kts | 0° |
| 2026-05-07 02:45 | -41.37353 | 174.80362 | 874 ft | 127 kts | 2° |
| 2026-05-07 02:46 | -41.36471 | 174.80413 | 654 ft | 129 kts | 1° |
| 2026-05-07 02:46 | -41.35559 | 174.80482 | 464 ft | 130 kts | 5° |
| 2026-05-07 02:46 | -41.34685 | 174.80553 | 308 ft | 122 kts | 4° |
| 2026-05-07 02:46 | -41.33798 | 174.80615 | 118 ft | 128 kts | 3° |
| 2026-05-07 02:47 | -41.32954 | 174.80671 | 23 ft | 107 kts | 2° |
| 2026-05-07 02:47 | -41.32433 | 174.80709 | 21 ft | 33 kts | 3° |
| 2026-05-07 02:47 | -41.32305 | 174.80715 | 24 ft | 15 kts | 2° |